createdAt,value
2023-06-12T00:00:40.451Z,100708.03
2023-06-12T00:05:46.822Z,100702.09
2023-06-12T00:10:50.359Z,100702.13
2023-06-12T00:15:54.651Z,100713.72
2023-06-12T00:20:59.598Z,100714.69
2023-06-12T00:26:04.286Z,100713.91
2023-06-12T00:31:07.798Z,100720.06
2023-06-12T00:36:14.067Z,100721.81
2023-06-12T00:41:17.499Z,100727.13
2023-06-12T00:46:21.868Z,100727.13
2023-06-12T00:51:29.667Z,100729.78
2023-06-12T00:56:33.292Z,100734.16
2023-06-12T01:01:37.556Z,100737.63
2023-06-12T01:06:50.085Z,100738.50
2023-06-12T01:11:55.024Z,100747.25
2023-06-12T01:16:59.984Z,100745.47
2023-06-12T01:22:11.239Z,100736.63
2023-06-12T01:27:44.751Z,100755.94
2023-06-12T01:32:52.622Z,100760.28
2023-06-12T01:38:06.187Z,100765.47
2023-06-12T01:43:09.704Z,100771.53
2023-06-12T01:48:15.517Z,100760.88
2023-06-12T01:53:18.988Z,100772.19
2023-06-12T01:58:22.725Z,100770.31
2023-06-12T02:03:28.072Z,100770.09
2023-06-12T02:08:31.641Z,100769.06
2023-06-12T02:13:35.330Z,100779.44
2023-06-12T02:18:41.614Z,100772.16
2023-06-12T02:24:05.835Z,100775.44
2023-06-12T02:29:11.007Z,100783.19
2023-06-12T02:34:16.048Z,100770.66
2023-06-12T02:39:20.003Z,100768.78
2023-06-12T02:44:23.483Z,100771.97
2023-06-12T02:49:30.785Z,100764.56
2023-06-12T02:54:35.002Z,100754.66
2023-06-12T02:59:39.146Z,100773.56
2023-06-12T03:04:44.099Z,100775.03
2023-06-12T03:09:48.050Z,100776.41
2023-06-12T03:14:52.321Z,100784.94
2023-06-12T03:19:57.331Z,100785.44
2023-06-12T03:25:01.035Z,100789.50
2023-06-12T03:30:04.719Z,100798.78
2023-06-12T03:35:11.709Z,100791.25
2023-06-12T03:40:15.898Z,100788.91
2023-06-12T03:45:19.426Z,100790.06
2023-06-12T03:50:24.964Z,100786.06
2023-06-12T03:55:28.959Z,100780.88
2023-06-12T04:00:32.450Z,100778.41
2023-06-12T04:05:37.474Z,100786.56
2023-06-12T04:10:41.829Z,100785.72
2023-06-12T04:15:45.424Z,100747.53
2023-06-12T04:20:50.654Z,100789.53
2023-06-12T04:25:55.448Z,100786.91
2023-06-12T04:30:59.378Z,100782.47
2023-06-12T04:36:05.187Z,100786.03
2023-06-12T04:41:11.263Z,100782.38
2023-06-12T04:46:14.810Z,100778.56
2023-06-12T04:51:19.987Z,100783.56
2023-06-12T04:56:23.576Z,100779.69
2023-06-12T05:01:27.071Z,100774.03
2023-06-12T05:06:34.252Z,100771.22
2023-06-12T05:11:38.018Z,100777.16
2023-06-12T05:16:41.529Z,100739.44
2023-06-12T05:21:46.547Z,100759.44
2023-06-12T05:26:50.028Z,100763.50
2023-06-12T05:31:53.434Z,100748.72
2023-06-12T05:36:59.029Z,100756.31
2023-06-12T05:42:02.440Z,100753.06
2023-06-12T05:47:06.215Z,100763.13
2023-06-12T05:52:12.565Z,100758.03
2023-06-12T05:57:16.692Z,100752.81
2023-06-12T06:02:20.534Z,100754.22
2023-06-12T06:07:26.130Z,100745.91
2023-06-12T06:12:29.644Z,100740.16
2023-06-12T06:17:33.307Z,100734.53
2023-06-12T06:22:38.366Z,100744.69
2023-06-12T06:27:41.976Z,100747.38
2023-06-12T06:32:45.585Z,100737.06
2023-06-12T06:37:50.749Z,100733.53
2023-06-12T06:42:54.567Z,100738.53
2023-06-12T06:47:58.019Z,100727.31
2023-06-12T06:53:03.591Z,100740.16
2023-06-12T06:58:07.177Z,100739.50
2023-06-12T07:03:11.281Z,100743.34
2023-06-12T07:08:16.406Z,100724.47
2023-06-12T07:13:20.272Z,100720.50
2023-06-12T07:18:23.789Z,100708.06
2023-06-12T07:23:28.774Z,100711.56
2023-06-12T07:28:32.470Z,100705.38
2023-06-12T07:33:36.207Z,100680.50
2023-06-12T07:38:41.209Z,100700.25
2023-06-12T07:43:44.712Z,100706.41
2023-06-12T07:48:48.448Z,100692.16
2023-06-12T07:53:53.448Z,100701.06
2023-06-12T07:58:57.011Z,100687.78
2023-06-12T08:04:00.571Z,100656.53
2023-06-12T08:09:05.533Z,100707.81
2023-06-12T08:14:09.432Z,100696.78
2023-06-12T08:19:14.236Z,100690.22
2023-06-12T08:24:19.064Z,100695.94
2023-06-12T08:29:22.724Z,100673.97
2023-06-12T08:34:27.454Z,100681.97
2023-06-12T08:39:32.700Z,100681.97
2023-06-12T08:44:36.625Z,100628.22
2023-06-12T08:49:40.495Z,100659.25
2023-06-12T08:54:47.906Z,100669.75
2023-06-12T08:59:51.937Z,100652.56
2023-06-12T09:05:02.723Z,100652.69
2023-06-12T09:10:14.967Z,100645.00
2023-06-12T09:15:19.715Z,100638.53
2023-06-12T09:20:41.726Z,100635.78
2023-06-12T09:26:13.192Z,100629.56
2023-06-12T09:31:12.241Z,100624.72
2023-06-12T09:36:16.149Z,100603.06
2023-06-12T09:41:26.107Z,100607.25
2023-06-12T09:46:29.991Z,100605.22
2023-06-12T09:51:35.460Z,100601.63
2023-06-12T09:56:41.212Z,100611.69
2023-06-12T10:01:49.172Z,100595.63
2023-06-12T10:06:58.097Z,100589.44
2023-06-12T10:12:03.815Z,100585.91
2023-06-12T10:17:09.100Z,100587.81
2023-06-12T10:22:12.674Z,100586.69
2023-06-12T10:27:19.158Z,100566.50
2023-06-12T10:32:23.678Z,100580.63
2023-06-12T10:37:28.863Z,100577.34
2023-06-12T10:42:43.134Z,100568.16
2023-06-12T10:48:15.095Z,100567.75
2023-06-12T10:53:24.855Z,100563.34
2023-06-12T10:58:29.842Z,100564.00
2023-06-12T11:03:35.462Z,100549.00
2023-06-12T11:08:39.192Z,100558.97
2023-06-12T11:13:45.426Z,100541.97
2023-06-12T11:18:49.017Z,100547.22
2023-06-12T11:23:52.607Z,100517.56
2023-06-12T11:28:58.477Z,100554.81
2023-06-12T11:34:03.225Z,100535.50
2023-06-12T11:44:26.810Z,100535.34
2023-06-12T11:49:32.449Z,100523.59
2023-06-12T12:00:13.415Z,100522.59
2023-06-12T12:05:22.091Z,100514.47
2023-06-12T12:10:26.248Z,100510.41
2023-06-12T12:15:32.466Z,100494.75
2023-06-12T12:20:37.404Z,100488.91
2023-06-12T12:25:42.438Z,100496.50
2023-06-12T12:30:47.473Z,100480.75
2023-06-12T12:35:51.059Z,100498.94
2023-06-12T12:40:54.635Z,100489.63
2023-06-12T12:45:59.865Z,100492.53
2023-06-12T12:51:10.005Z,100467.47
2023-06-12T12:56:15.534Z,100495.94
2023-06-12T13:01:20.672Z,100485.31
2023-06-12T13:06:24.933Z,100492.06
2023-06-12T13:11:28.568Z,100483.63
2023-06-12T13:16:33.441Z,100492.03
2023-06-12T13:21:37.009Z,100485.31
2023-06-12T13:26:40.733Z,100481.78
2023-06-12T13:31:45.780Z,100482.47
2023-06-12T13:36:49.319Z,100478.19
2023-06-12T13:41:53.705Z,100478.91
2023-06-12T13:46:58.804Z,100469.88
2023-06-12T13:52:02.307Z,100474.38
2023-06-12T13:57:07.904Z,100464.84
2023-06-12T14:02:12.833Z,100464.78
2023-06-12T14:07:16.344Z,100470.59
2023-06-12T14:12:19.873Z,100475.13
2023-06-12T14:17:24.827Z,100462.94
2023-06-12T14:22:28.811Z,100469.47
2023-06-12T14:27:32.915Z,100470.47
2023-06-12T14:32:37.908Z,100470.16
2023-06-12T14:37:41.439Z,100465.94
2023-06-12T14:42:44.826Z,100462.59
2023-06-12T14:47:50.029Z,100467.84
2023-06-12T14:52:53.626Z,100470.75
2023-06-12T14:57:57.087Z,100472.81
2023-06-12T15:03:02.151Z,100474.91
2023-06-12T15:08:05.934Z,100469.94
2023-06-12T15:13:10.563Z,100477.00
2023-06-12T15:18:26.305Z,100477.91
2023-06-12T15:23:40.063Z,100479.69
2023-06-12T15:28:43.553Z,100483.41
2023-06-12T15:33:48.759Z,100485.72
2023-06-12T15:38:53.531Z,100481.09
2023-06-12T15:43:56.909Z,100481.94
2023-06-12T15:49:01.989Z,100488.66
2023-06-12T16:49:31.928Z,100515.53
2023-06-12T16:54:36.948Z,100520.53
2023-06-12T16:59:42.777Z,100518.38
2023-06-12T17:04:47.219Z,100520.09
2023-06-12T17:09:52.353Z,100529.81
2023-06-12T17:14:55.910Z,100530.91
2023-06-12T17:19:59.494Z,100486.19
2023-06-12T17:25:05.101Z,100536.31
2023-06-12T17:30:10.548Z,100544.25
2023-06-12T17:35:14.126Z,100545.00
2023-06-12T17:40:19.183Z,100544.66
2023-06-12T17:45:23.921Z,100549.25
2023-06-12T17:50:30.764Z,100560.03
2023-06-12T17:55:35.767Z,100556.16
2023-06-12T18:00:39.596Z,100560.00
2023-06-12T18:05:43.626Z,100563.69
2023-06-12T18:10:48.703Z,100564.63
2023-06-12T18:15:52.136Z,100564.00
2023-06-12T18:20:55.705Z,100570.38
2023-06-12T18:26:01.031Z,100551.28
2023-06-12T18:31:04.694Z,100559.72
2023-06-12T18:36:09.660Z,100562.19
2023-06-12T18:41:15.274Z,100525.69
2023-06-12T18:46:23.858Z,100558.59
2023-06-12T18:51:27.817Z,100568.19
2023-06-12T18:56:34.838Z,100567.06
2023-06-12T19:01:38.379Z,100573.03
2023-06-12T19:06:42.723Z,100573.44
2023-06-12T19:11:48.038Z,100571.16
2023-06-12T19:16:51.680Z,100570.50
2023-06-12T19:21:55.395Z,100580.31
2023-06-12T19:27:00.351Z,100572.50
2023-06-12T19:32:04.021Z,100578.88
2023-06-12T19:37:07.595Z,100574.81
2023-06-12T19:42:13.021Z,100542.72
2023-06-12T19:47:16.612Z,100578.69
2023-06-12T19:52:20.120Z,100580.69
2023-06-12T19:57:25.657Z,100578.31
2023-06-12T20:02:29.198Z,100494.06
2023-06-12T20:07:32.901Z,100492.56
2023-06-12T20:12:38.401Z,100494.59
2023-06-12T20:17:42.124Z,100492.28
2023-06-12T20:22:47.261Z,100491.78
2023-06-12T20:27:52.290Z,100495.72
2023-06-12T20:32:56.551Z,100500.34
2023-06-12T20:38:00.281Z,100498.94
2023-06-12T20:43:07.950Z,100501.91
2023-06-12T20:48:11.644Z,100510.94
2023-06-12T20:53:16.586Z,100511.97
2023-06-12T20:58:21.482Z,100513.19
2023-06-12T21:03:25.129Z,100510.03
2023-06-12T21:08:28.819Z,100520.06
2023-06-12T21:13:33.696Z,100526.53
2023-06-12T21:18:37.210Z,100522.38
2023-06-12T21:23:40.736Z,100522.78
2023-06-12T21:28:46.022Z,100511.53
2023-06-12T21:33:49.592Z,100517.97
2023-06-12T21:38:53.136Z,100513.72
2023-06-12T21:43:57.978Z,100512.94
2023-06-12T21:49:01.603Z,100514.88
2023-06-12T21:54:05.282Z,100513.38
2023-06-12T21:59:10.761Z,100518.06
2023-06-12T22:04:14.360Z,100526.28
2023-06-12T22:09:17.871Z,100519.41
2023-06-12T22:21:05.701Z,100529.56
2023-06-12T22:26:09.872Z,100522.88
2023-06-12T22:31:13.468Z,100520.50
2023-06-12T22:36:18.538Z,100529.56
2023-06-12T22:41:21.999Z,100531.59
2023-06-12T22:46:25.638Z,100532.72
2023-06-12T22:51:30.714Z,100530.28
2023-06-12T22:56:34.225Z,100539.47
2023-06-12T23:01:37.766Z,100542.44
2023-06-12T23:06:43.243Z,100547.91
2023-06-12T23:11:46.739Z,100546.34
2023-06-12T23:16:52.971Z,100554.47
2023-06-12T23:21:58.003Z,100550.19
2023-06-12T23:27:01.689Z,100544.16
2023-06-12T23:32:05.870Z,100539.88
2023-06-12T23:37:11.037Z,100543.56
2023-06-12T23:42:18.666Z,100541.97
2023-06-12T23:47:22.489Z,100542.09
2023-06-12T23:52:28.014Z,100550.22
2023-06-12T23:57:31.684Z,100546.03
